createdAt,value
2023-05-05T00:01:25.549Z,12.96
2023-05-05T00:04:27.942Z,12.88
2023-05-05T00:07:29.877Z,12.93
2023-05-05T00:10:32.480Z,12.80
2023-05-05T00:13:34.436Z,12.82
2023-05-05T00:16:36.706Z,12.72
2023-05-05T00:19:38.668Z,12.70
2023-05-05T00:22:40.908Z,12.61
2023-05-05T00:25:42.984Z,12.49
2023-05-05T00:28:45.281Z,12.49
2023-05-05T00:31:47.254Z,12.45
2023-05-05T00:34:49.510Z,12.47
2023-05-05T00:37:51.525Z,12.47
2023-05-05T00:40:53.805Z,12.45
2023-05-05T00:43:55.789Z,12.48
2023-05-05T00:46:58.046Z,12.38
2023-05-05T00:50:00.209Z,12.36
2023-05-05T00:53:03.374Z,12.31
2023-05-05T00:56:05.567Z,12.26
2023-05-05T00:59:07.837Z,12.32
2023-05-05T01:02:10.544Z,12.31
2023-05-05T01:05:14.321Z,12.20
2023-05-05T01:08:24.125Z,12.22
2023-05-05T01:11:31.083Z,12.00
2023-05-05T01:14:40.878Z,11.95
2023-05-05T01:17:50.985Z,12.06
2023-05-05T01:21:07.120Z,11.96
2023-05-05T01:24:31.527Z,11.91
2023-05-05T01:27:52.553Z,11.79
2023-05-05T01:30:54.729Z,11.76
2023-05-05T01:34:01.823Z,11.77
2023-05-05T01:37:04.629Z,11.72
2023-05-05T01:40:09.555Z,11.80
2023-05-05T01:43:13.533Z,11.70
2023-05-05T01:46:16.134Z,11.68
2023-05-05T01:49:18.540Z,11.78
2023-05-05T01:52:21.672Z,11.75
2023-05-05T01:55:25.508Z,11.68
2023-05-05T01:58:29.209Z,11.65
2023-05-05T02:01:31.842Z,11.70
2023-05-05T02:04:35.881Z,11.40
2023-05-05T02:07:38.186Z,11.28
2023-05-05T02:10:40.852Z,11.36
2023-05-05T02:13:43.828Z,11.22
2023-05-05T02:16:50.982Z,11.08
2023-05-05T02:19:53.109Z,11.05
2023-05-05T02:22:55.346Z,11.13
2023-05-05T02:26:08.166Z,10.97
2023-05-05T02:29:14.920Z,11.17
2023-05-05T02:32:20.762Z,10.93
2023-05-05T02:35:27.046Z,10.75
2023-05-05T02:38:30.405Z,10.94
2023-05-05T02:41:36.251Z,10.73
2023-05-05T02:44:41.308Z,10.65
2023-05-05T02:47:44.109Z,10.51
2023-05-05T02:50:46.245Z,10.48
2023-05-05T02:53:48.836Z,10.22
2023-05-05T02:56:51.256Z,10.31
2023-05-05T02:59:58.401Z,10.19
2023-05-05T03:03:19.621Z,10.10
2023-05-05T03:06:24.807Z,9.77
2023-05-05T03:09:33.175Z,9.91
2023-05-05T03:12:40.308Z,10.05
2023-05-05T03:15:46.731Z,10.15
2023-05-05T03:18:51.035Z,10.21
2023-05-05T03:21:54.012Z,10.04
2023-05-05T03:24:56.295Z,10.18
2023-05-05T03:27:58.553Z,10.33
2023-05-05T03:31:01.215Z,10.27
2023-05-05T03:34:03.408Z,10.32
2023-05-05T03:37:06.883Z,10.17
2023-05-05T03:40:09.529Z,10.23
2023-05-05T03:43:12.038Z,10.10
2023-05-05T03:46:14.971Z,10.12
2023-05-05T03:49:18.070Z,9.95
2023-05-05T03:52:22.900Z,10.18
2023-05-05T03:55:25.791Z,10.40
2023-05-05T03:58:27.746Z,10.44
2023-05-05T04:01:31.408Z,10.15
2023-05-05T04:04:35.113Z,10.10
2023-05-05T04:07:37.429Z,10.09
2023-05-05T04:10:39.824Z,10.26
2023-05-05T04:13:42.139Z,10.51
2023-05-05T04:16:44.935Z,10.53
2023-05-05T04:19:47.351Z,10.65
2023-05-05T04:22:52.766Z,11.05
2023-05-05T04:25:55.743Z,11.89
2023-05-05T04:28:59.004Z,12.62
2023-05-05T04:32:01.166Z,12.57
2023-05-05T04:35:04.358Z,12.34
2023-05-05T04:38:10.168Z,12.34
2023-05-05T04:41:13.767Z,12.65
2023-05-05T04:44:16.283Z,13.77
2023-05-05T04:47:18.990Z,14.25
2023-05-05T04:50:21.242Z,15.62
2023-05-05T04:53:24.086Z,16.86
2023-05-05T04:56:26.429Z,17.58
2023-05-05T04:59:30.105Z,16.73
2023-05-05T05:02:34.434Z,16.74
2023-05-05T05:05:37.697Z,17.31
2023-05-05T05:08:39.846Z,17.03
2023-05-05T05:11:44.971Z,17.37
2023-05-05T05:14:47.312Z,17.96
2023-05-05T05:17:51.084Z,19.00
2023-05-05T05:20:53.423Z,20.02
2023-05-05T05:23:56.659Z,20.93
2023-05-05T05:26:59.820Z,21.62
2023-05-05T05:30:03.404Z,22.32
2023-05-05T05:33:06.797Z,22.99
2023-05-05T05:36:09.861Z,23.72
2023-05-05T05:39:13.560Z,25.32
2023-05-05T05:42:16.998Z,25.94
2023-05-05T05:45:20.073Z,26.17
2023-05-05T05:48:28.513Z,26.95
2023-05-05T05:51:32.469Z,26.54
2023-05-05T05:54:36.807Z,26.94
2023-05-05T05:57:40.517Z,27.15
2023-05-05T06:00:43.482Z,27.08
2023-05-05T06:03:46.053Z,26.95
2023-05-05T06:06:48.618Z,27.64
2023-05-05T06:09:51.162Z,28.01
2023-05-05T06:12:53.402Z,27.19
2023-05-05T06:15:55.893Z,26.76
2023-05-05T06:18:58.354Z,27.25
2023-05-05T06:22:00.647Z,26.92
2023-05-05T06:25:02.607Z,26.89
2023-05-05T06:28:05.742Z,27.65
2023-05-05T06:31:08.033Z,26.49
2023-05-05T06:34:10.336Z,26.87
2023-05-05T06:37:12.264Z,27.57
2023-05-05T06:40:14.606Z,27.64
2023-05-05T06:43:17.248Z,28.18
2023-05-05T06:46:20.194Z,28.73
2023-05-05T06:49:22.192Z,28.79
2023-05-05T06:52:24.522Z,29.12
2023-05-05T06:55:26.569Z,29.08
2023-05-05T06:58:28.945Z,29.49
2023-05-05T07:01:31.895Z,29.04
2023-05-05T07:04:34.271Z,28.94
2023-05-05T07:07:38.725Z,29.10
2023-05-05T07:10:41.734Z,28.44
2023-05-05T07:13:43.768Z,28.79
2023-05-05T07:16:46.421Z,29.36
2023-05-05T07:19:48.646Z,27.93
2023-05-05T07:22:50.882Z,27.30
2023-05-05T07:25:52.926Z,27.15
2023-05-05T07:28:57.231Z,26.93
2023-05-05T07:31:59.323Z,26.73
2023-05-05T07:35:01.596Z,25.77
2023-05-05T07:38:03.914Z,25.54
2023-05-05T07:41:06.456Z,26.08
2023-05-05T07:44:08.531Z,25.93
2023-05-05T07:47:10.896Z,26.56
2023-05-05T07:50:13.254Z,26.51
2023-05-05T07:53:15.567Z,26.12
2023-05-05T07:56:18.936Z,25.68
2023-05-05T07:59:24.045Z,25.66
2023-05-05T08:02:26.305Z,25.11
2023-05-05T08:05:28.643Z,24.34
2023-05-05T08:08:30.737Z,24.07
2023-05-05T08:11:33.127Z,23.17
2023-05-05T08:14:36.209Z,22.87
2023-05-05T08:17:51.523Z,22.32
2023-05-05T08:20:56.706Z,22.63
2023-05-05T08:24:00.308Z,22.14
2023-05-05T08:27:03.708Z,22.35
2023-05-05T08:30:06.875Z,22.29
2023-05-05T08:33:08.979Z,21.50
2023-05-05T08:36:13.738Z,21.57
2023-05-05T08:39:16.539Z,21.83
2023-05-05T08:42:32.708Z,21.40
2023-05-05T08:45:40.788Z,21.10
2023-05-05T08:48:43.973Z,21.40
2023-05-05T08:51:46.834Z,21.69
2023-05-05T08:54:57.845Z,21.86
2023-05-05T08:58:04.188Z,22.22
2023-05-05T09:01:10.113Z,22.43
2023-05-05T09:04:12.342Z,22.58
2023-05-05T09:07:14.972Z,22.83
2023-05-05T09:10:17.635Z,22.59
2023-05-05T09:13:20.388Z,22.03
2023-05-05T09:16:22.708Z,21.87
2023-05-05T09:19:27.312Z,21.94
2023-05-05T09:22:47.362Z,21.91
2023-05-05T09:26:04.477Z,21.98
2023-05-05T09:29:10.778Z,22.27
2023-05-05T09:32:13.383Z,21.86
2023-05-05T09:35:17.068Z,21.96
2023-05-05T09:38:20.696Z,21.93
2023-05-05T09:41:36.610Z,22.30
2023-05-05T09:44:40.720Z,22.52
2023-05-05T09:47:42.974Z,22.67
2023-05-05T09:50:45.731Z,23.04
2023-05-05T09:53:48.257Z,23.17
2023-05-05T09:56:51.400Z,23.09
2023-05-05T09:59:58.873Z,23.17
2023-05-05T10:03:04.892Z,23.23
2023-05-05T10:06:07.956Z,22.94
2023-05-05T10:09:10.632Z,22.41
2023-05-05T10:12:13.813Z,22.44
2023-05-05T10:15:16.632Z,22.62
2023-05-05T10:18:21.800Z,22.41
2023-05-05T10:21:25.581Z,22.18
2023-05-05T10:24:39.714Z,22.16
2023-05-05T10:27:45.991Z,22.40
2023-05-05T10:30:51.230Z,22.71
2023-05-05T10:34:18.167Z,22.93
2023-05-05T10:37:21.215Z,22.78
2023-05-05T10:40:23.692Z,22.89
2023-05-05T10:43:27.556Z,22.52
2023-05-05T10:46:29.666Z,22.53
2023-05-05T10:49:37.605Z,22.61
2023-05-05T10:52:39.727Z,22.48
2023-05-05T10:56:03.346Z,22.26
2023-05-05T10:59:25.199Z,22.38
2023-05-05T11:02:28.383Z,22.86
2023-05-05T11:05:31.024Z,23.09
2023-05-05T11:08:34.453Z,23.15
2023-05-05T11:12:15.977Z,23.38
2023-05-05T11:15:27.832Z,23.47
2023-05-05T11:18:36.180Z,22.89
2023-05-05T11:22:00.477Z,22.88
2023-05-05T11:25:22.812Z,22.73
2023-05-05T11:28:28.513Z,22.67
2023-05-05T11:31:31.213Z,22.72
2023-05-05T11:34:33.467Z,22.88
2023-05-05T11:37:37.116Z,22.93
2023-05-05T11:40:42.490Z,22.96
2023-05-05T11:43:44.597Z,23.14
2023-05-05T11:46:52.921Z,22.83
2023-05-05T11:49:55.730Z,22.86
2023-05-05T11:52:58.588Z,22.55
2023-05-05T11:56:07.536Z,22.70
2023-05-05T11:59:10.788Z,22.40
2023-05-05T12:02:16.042Z,22.66
2023-05-05T12:05:21.229Z,22.92
2023-05-05T12:08:24.366Z,23.04
2023-05-05T12:11:26.950Z,22.95
2023-05-05T12:14:28.911Z,22.83
2023-05-05T12:17:39.064Z,22.90
2023-05-05T12:20:41.726Z,23.02
2023-05-05T12:23:44.229Z,22.97
2023-05-05T12:26:46.395Z,23.04
2023-05-05T12:29:49.256Z,23.10
2023-05-05T12:33:00.226Z,23.15
2023-05-05T12:36:02.933Z,23.12
2023-05-05T12:39:05.408Z,23.22
2023-05-05T12:42:07.769Z,23.15
2023-05-05T12:45:17.637Z,23.22
2023-05-05T12:48:22.979Z,23.25
2023-05-05T12:51:24.992Z,23.23
2023-05-05T12:54:30.039Z,23.37
2023-05-05T12:57:32.125Z,23.12
2023-05-05T13:00:34.421Z,23.34
2023-05-05T13:03:36.616Z,23.59
2023-05-05T13:06:40.417Z,23.40
2023-05-05T13:09:42.718Z,23.61
2023-05-05T13:12:44.989Z,23.74
2023-05-05T13:15:47.088Z,23.59
2023-05-05T13:18:49.924Z,23.90
2023-05-05T13:21:52.540Z,23.71
2023-05-05T13:24:54.814Z,23.63
2023-05-05T13:27:56.854Z,23.75
2023-05-05T13:30:59.101Z,23.83
2023-05-05T13:34:01.122Z,23.77
2023-05-05T13:37:03.405Z,23.70
2023-05-05T13:40:06.230Z,23.61
2023-05-05T13:43:08.452Z,23.52
2023-05-05T13:46:19.801Z,23.31
2023-05-05T13:49:22.749Z,23.38
2023-05-05T13:52:24.769Z,23.36
2023-05-05T13:55:28.133Z,23.25
2023-05-05T13:58:30.371Z,22.80
2023-05-05T14:01:32.742Z,22.84
2023-05-05T14:04:35.040Z,22.72
2023-05-05T14:07:37.028Z,22.96
2023-05-05T14:10:40.389Z,22.76
2023-05-05T14:13:43.414Z,22.89
2023-05-05T14:16:47.854Z,23.12
2023-05-05T14:19:51.508Z,22.91
2023-05-05T14:22:54.569Z,22.88
2023-05-05T14:25:56.670Z,22.87
2023-05-05T14:28:58.923Z,22.90
2023-05-05T14:32:00.949Z,22.77
2023-05-05T14:35:03.328Z,22.41
2023-05-05T14:38:05.657Z,22.33
2023-05-05T14:41:08.073Z,22.08
2023-05-05T14:44:10.017Z,21.74
2023-05-05T14:47:12.355Z,21.65
2023-05-05T14:50:14.361Z,21.50
2023-05-05T14:53:16.892Z,21.38
2023-05-05T14:56:21.771Z,21.40
2023-05-05T14:59:24.098Z,21.38
2023-05-05T15:02:26.183Z,21.42
2023-05-05T15:05:28.416Z,21.46
2023-05-05T15:08:30.412Z,21.56
2023-05-05T15:11:32.605Z,21.71
2023-05-05T15:14:36.426Z,21.72
2023-05-05T15:17:38.961Z,21.68
2023-05-05T15:20:41.014Z,21.67
2023-05-05T15:23:43.269Z,21.75
2023-05-05T15:26:45.232Z,21.71
2023-05-05T15:29:48.459Z,21.83
2023-05-05T15:32:50.477Z,21.69
2023-05-05T15:35:52.765Z,21.60
2023-05-05T15:38:54.707Z,21.54
2023-05-05T15:41:56.923Z,21.50
2023-05-05T15:44:59.372Z,21.59
2023-05-05T15:48:01.702Z,21.68
2023-05-05T15:51:03.689Z,21.64
2023-05-05T15:54:05.983Z,21.60
2023-05-05T15:57:08.209Z,21.62
2023-05-05T16:00:10.656Z,21.50
2023-05-05T16:03:12.981Z,21.39
2023-05-05T16:06:17.704Z,21.32
2023-05-05T16:09:19.976Z,21.23
2023-05-05T16:12:22.099Z,21.08
2023-05-05T16:15:24.343Z,21.06
2023-05-05T16:18:26.737Z,21.04
2023-05-05T16:21:29.029Z,20.97
2023-05-05T16:24:30.984Z,20.98
2023-05-05T16:27:33.241Z,20.96
2023-05-05T16:30:35.655Z,20.92
2023-05-05T16:33:43.452Z,20.77
2023-05-05T16:36:45.514Z,20.68
2023-05-05T16:39:47.747Z,20.62
2023-05-05T16:42:49.668Z,20.54
2023-05-05T16:45:51.936Z,20.40
2023-05-05T16:48:53.987Z,20.33
2023-05-05T16:51:57.234Z,20.17
2023-05-05T16:54:59.163Z,20.10
2023-05-05T16:58:01.505Z,19.97
2023-05-05T17:01:04.087Z,19.86
2023-05-05T17:04:06.381Z,19.73
2023-05-05T17:07:08.354Z,19.58
2023-05-05T17:10:10.799Z,19.46
2023-05-05T17:13:13.546Z,19.36
2023-05-05T17:16:15.890Z,19.28
2023-05-05T17:19:17.928Z,19.23
2023-05-05T17:22:20.223Z,19.15
2023-05-05T17:25:22.325Z,19.05
2023-05-05T17:28:24.597Z,18.96
2023-05-05T17:31:26.554Z,18.88
2023-05-05T17:34:28.818Z,18.77
2023-05-05T17:37:31.194Z,18.69
2023-05-05T17:40:33.421Z,18.60
2023-05-05T17:43:35.367Z,18.50
2023-05-05T17:46:38.166Z,18.34
2023-05-05T17:49:40.093Z,18.23
2023-05-05T17:52:43.803Z,18.10
2023-05-05T17:55:46.028Z,18.03
2023-05-05T17:58:48.862Z,17.92
2023-05-05T18:01:50.872Z,17.86
2023-05-05T18:04:53.364Z,17.75
2023-05-05T18:07:55.278Z,17.71
2023-05-05T18:10:57.629Z,17.63
2023-05-05T18:13:59.572Z,17.54
2023-05-05T18:17:01.770Z,17.43
2023-05-05T18:20:06.644Z,17.32
2023-05-05T18:23:08.894Z,17.10
2023-05-05T18:26:10.879Z,16.99
2023-05-05T18:29:15.885Z,16.93
2023-05-05T18:32:17.901Z,16.81
2023-05-05T18:35:20.177Z,16.75
2023-05-05T18:38:22.256Z,16.76
2023-05-05T18:41:24.551Z,16.73
2023-05-05T18:44:26.750Z,16.73
2023-05-05T18:47:29.293Z,16.75
2023-05-05T18:50:33.122Z,16.69
2023-05-05T18:53:35.807Z,16.73
2023-05-05T18:56:37.772Z,16.65
2023-05-05T18:59:40.029Z,16.64
2023-05-05T19:02:42.047Z,16.60
2023-05-05T19:05:44.342Z,16.57
2023-05-05T19:08:46.589Z,16.48
2023-05-05T19:11:49.852Z,16.37
2023-05-05T19:14:51.760Z,16.27
2023-05-05T19:17:54.445Z,16.15
2023-05-05T19:20:56.420Z,16.08
2023-05-05T19:23:58.690Z,15.98
2023-05-05T19:27:02.075Z,15.98
2023-05-05T19:30:04.903Z,15.94
2023-05-05T19:33:06.928Z,15.91
2023-05-05T19:36:09.161Z,15.76
2023-05-05T19:39:12.568Z,15.63
2023-05-05T19:42:16.376Z,15.51
2023-05-05T19:45:18.355Z,15.40
2023-05-05T19:48:20.837Z,15.27
2023-05-05T19:51:22.911Z,15.39
2023-05-05T19:54:25.621Z,15.04
2023-05-05T19:57:27.678Z,14.86
2023-05-05T20:00:29.936Z,14.46
2023-05-05T20:03:32.248Z,14.56
2023-05-05T20:06:35.075Z,14.55
2023-05-05T20:09:37.775Z,14.56
2023-05-05T20:12:42.250Z,14.64
2023-05-05T20:15:47.887Z,14.74
2023-05-05T20:18:50.248Z,14.76
2023-05-05T20:21:52.477Z,14.75
2023-05-05T20:24:54.491Z,14.57
2023-05-05T20:27:56.776Z,14.57
2023-05-05T20:31:00.525Z,14.54
2023-05-05T20:34:02.880Z,14.42
2023-05-05T20:37:04.968Z,14.41
2023-05-05T20:40:07.943Z,14.44
2023-05-05T20:43:10.217Z,14.47
2023-05-05T20:46:13.438Z,14.40
2023-05-05T20:49:15.536Z,14.13
2023-05-05T20:52:17.878Z,14.10
2023-05-05T20:55:19.852Z,14.09
2023-05-05T20:58:22.085Z,14.21
2023-05-05T21:01:24.163Z,14.32
2023-05-05T21:04:26.911Z,14.36
2023-05-05T21:07:31.136Z,14.28
2023-05-05T21:10:33.746Z,14.22
2023-05-05T21:13:36.226Z,14.11
2023-05-05T21:16:38.533Z,14.25
2023-05-05T21:19:41.155Z,14.02
2023-05-05T21:22:43.469Z,14.02
2023-05-05T21:25:45.437Z,14.28
2023-05-05T21:28:47.631Z,14.17
2023-05-05T21:31:49.570Z,14.16
2023-05-05T21:34:51.831Z,14.03
2023-05-05T21:37:53.799Z,14.05
2023-05-05T21:40:59.222Z,13.57
2023-05-05T21:44:01.227Z,13.46
2023-05-05T21:47:05.338Z,13.57
2023-05-05T21:50:07.836Z,13.61
2023-05-05T21:53:10.356Z,13.60
2023-05-05T21:56:12.251Z,13.60
2023-05-05T21:59:16.485Z,13.47
2023-05-05T22:02:19.122Z,13.47
2023-05-05T22:05:21.658Z,13.56
2023-05-05T22:08:23.638Z,13.01
2023-05-05T22:11:25.954Z,12.84
2023-05-05T22:14:27.914Z,12.87
2023-05-05T22:17:30.267Z,12.95
2023-05-05T22:20:32.216Z,13.03
2023-05-05T22:23:34.492Z,13.14
2023-05-05T22:26:36.512Z,12.72
2023-05-05T22:29:38.906Z,12.56
2023-05-05T22:32:43.348Z,12.52
2023-05-05T22:35:45.869Z,12.46
2023-05-05T22:38:47.773Z,12.35
2023-05-05T22:41:50.006Z,12.32
2023-05-05T22:44:52.858Z,12.43
2023-05-05T22:47:55.442Z,12.53
2023-05-05T22:50:57.488Z,12.68
2023-05-05T22:53:59.736Z,12.72
2023-05-05T22:57:02.306Z,12.74
2023-05-05T23:00:08.696Z,12.29
2023-05-05T23:03:10.953Z,12.18
2023-05-05T23:06:13.186Z,12.07
2023-05-05T23:09:15.133Z,11.85
2023-05-05T23:12:17.701Z,11.69
2023-05-05T23:15:19.645Z,11.60
2023-05-05T23:18:21.835Z,11.51
2023-05-05T23:21:23.877Z,11.59
2023-05-05T23:24:26.567Z,11.83
2023-05-05T23:27:28.515Z,11.81
2023-05-05T23:30:30.799Z,11.80
2023-05-05T23:33:32.831Z,11.74
2023-05-05T23:36:35.060Z,11.56
2023-05-05T23:39:37.070Z,11.68
2023-05-05T23:42:39.332Z,11.87
2023-05-05T23:45:41.258Z,11.63
2023-05-05T23:48:43.471Z,11.56
2023-05-05T23:51:45.440Z,11.69
2023-05-05T23:54:47.721Z,11.46
2023-05-05T23:57:51.561Z,11.31
